Time;durP1;ratioP1;P1;durP2;ratioP2;P2;SDS_P1;SDS_P2;PMS_P1;PMS_P2;Temp;Humidity;BMP_temperature;BMP_pressure;BME280_temperature;BME280_humidity;BME280_pressure;Samples;Min_cycle;Max_cycle;Signal;HPM_P1;HPM_P2
2023/10/15 00:00:16;;;;;;;3.13;0.40;;;8.10;99.90;;;;;;5113229;28;20044;-59
2023/10/15 00:02:43;;;;;;;0.57;0.57;;;7.00;99.90;;;;;;5114633;28;20052;-59
2023/10/15 00:05:18;;;;;;;0.20;0.20;;;6.50;99.90;;;;;;5114521;28;20086;-59
2023/10/15 00:07:44;;;;;;;0.82;0.70;;;6.30;99.90;;;;;;5114533;28;20058;-60
2023/10/15 00:10:12;;;;;;;0.40;0.40;;;8.50;99.90;;;;;;5114415;28;20048;-59
2023/10/15 00:12:39;;;;;;;1.15;0.75;;;6.50;99.90;;;;;;5114280;28;20500;-59
2023/10/15 00:15:18;;;;;;;1.63;1.52;;;6.80;99.90;;;;;;5114134;28;20405;-59
2023/10/15 00:17:45;;;;;;;0.30;0.30;;;7.50;99.90;;;;;;5113306;28;20783;-60
2023/10/15 00:20:16;;;;;;;4.95;0.73;;;5.90;99.90;;;;;;5114247;28;20039;-59
2023/10/15 00:22:46;;;;;;;0.30;0.30;;;7.50;99.90;;;;;;5114234;28;20059;-59
2023/10/15 00:25:14;;;;;;;0.20;0.20;;;7.20;99.90;;;;;;5114003;28;20043;-59
2023/10/15 00:27:52;;;;;;;0.22;0.22;;;8.00;99.90;;;;;;5114141;28;20052;-60
2023/10/15 00:30:19;;;;;;;0.20;0.20;;;8.60;99.90;;;;;;5114215;28;20054;-59
2023/10/15 00:32:46;;;;;;;0.40;0.40;;;7.40;99.90;;;;;;5113816;28;20559;-60
2023/10/15 00:35:13;;;;;;;0.20;0.20;;;7.80;99.90;;;;;;5113753;27;20372;-59
2023/10/15 00:38:07;;;;;;;1.17;0.30;;;7.70;99.90;;;;;;5113714;28;20415;-60
2023/10/15 00:40:27;;;;;;;0.20;0.20;;;7.80;99.90;;;;;;5113632;28;20087;-60
2023/10/15 00:42:53;;;;;;;0.95;0.95;;;7.30;99.90;;;;;;5113756;28;20050;-59
2023/10/15 00:45:20;;;;;;;0.68;0.32;;;7.10;99.90;;;;;;5113804;28;20045;-59
2023/10/15 00:48:33;;;;;;;0.20;0.20;;;7.80;99.90;;;;;;5113664;28;20517;-62
2023/10/15 00:50:47;;;;;;;0.20;0.20;;;7.50;99.90;;;;;;5110535;28;20051;-60
2023/10/15 00:53:21;;;;;;;1.45;1.05;;;8.00;99.90;;;;;;5114024;28;20048;-60
2023/10/15 00:56:01;;;;;;;0.73;0.73;;;7.40;99.90;;;;;;5113666;28;20135;-60
2023/10/15 01:03:54;;;;;;;0.20;0.20;;;7.40;99.90;;;;;;5113250;28;20506;-60
2023/10/15 01:09:08;;;;;;;0.25;0.25;;;8.00;99.90;;;;;;5113089;28;20096;-60
2023/10/15 01:11:50;;;;;;;0.20;0.20;;;7.30;99.90;;;;;;5112943;28;20130;-60
2023/10/15 01:14:25;;;;;;;0.52;0.50;;;7.80;99.90;;;;;;5113134;28;20051;-59
2023/10/15 01:16:51;;;;;;;0.20;0.20;;;7.50;99.90;;;;;;5113055;28;20123;-59
2023/10/15 01:19:19;;;;;;;1.20;1.20;;;7.60;99.90;;;;;;5113029;28;20043;-59
2023/10/15 01:24:19;;;;;;;0.20;0.20;;;7.80;99.90;;;;;;5113106;28;20054;-60
2023/10/15 01:27:27;;;;;;;0.20;0.20;;;7.50;99.90;;;;;;5112774;28;20802;-59
2023/10/15 01:29:42;;;;;;;0.20;0.20;;;7.50;99.90;;;;;;5111483;28;20055;-60
2023/10/15 01:32:14;;;;;;;0.28;0.28;;;7.40;99.90;;;;;;5112694;28;20823;-59
2023/10/15 01:34:48;;;;;;;0.20;0.20;;;7.00;99.90;;;;;;5112899;28;20050;-59
2023/10/15 01:39:49;;;;;;;0.20;0.20;;;7.00;99.90;;;;;;5112728;28;20054;-59
2023/10/15 01:50:16;;;;;;;0.20;0.20;;;6.80;99.90;;;;;;5112590;28;20860;-59
2023/10/15 01:52:42;;;;;;;;;;;6.80;99.90;;;;;;5113246;28;20491;-59
2023/10/15 01:55:08;;;;;;;0.20;0.20;;;6.50;99.90;;;;;;5112482;28;19977;-59
2023/10/15 01:57:36;;;;;;;;;;;7.40;99.90;;;;;;5113095;28;20047;-59
2023/10/15 02:00:13;;;;;;;0.20;0.20;;;6.60;99.90;;;;;;5112680;28;19991;-59
2023/10/15 02:02:40;;;;;;;;;;;6.80;99.90;;;;;;5113047;28;20055;-59
2023/10/15 02:05:29;;;;;;;0.20;0.20;;;6.80;99.90;;;;;;5112379;28;19924;-60
2023/10/15 02:07:53;;;;;;;0.22;0.22;;;6.90;99.90;;;;;;5112167;28;20563;-59
2023/10/15 02:10:19;;;;;;;0.70;0.70;;;7.20;99.90;;;;;;5112331;28;20052;-59
2023/10/15 02:12:51;;;;;;;0.10;0.10;;;7.50;99.90;;;;;;5112259;28;20055;-59
2023/10/15 02:15:22;;;;;;;7.18;0.40;;;7.60;99.90;;;;;;5112025;28;20050;-61
2023/10/15 02:17:52;;;;;;;0.20;0.20;;;8.10;99.90;;;;;;5111964;28;20051;-59
2023/10/15 02:20:26;;;;;;;0.20;0.20;;;7.90;99.90;;;;;;5112127;28;20047;-61
2023/10/15 02:22:57;;;;;;;0.32;0.32;;;8.30;99.90;;;;;;5111528;28;20047;-59
2023/10/15 02:25:27;;;;;;;0.20;0.20;;;8.50;99.90;;;;;;5111912;28;20047;-59
2023/10/15 02:27:52;;;;;;;0.30;0.30;;;8.70;99.90;;;;;;5111864;28;20047;-59
2023/10/15 02:30:18;;;;;;;0.20;0.20;;;8.40;99.90;;;;;;5111771;28;20517;-59
2023/10/15 02:32:44;;;;;;;0.30;0.30;;;8.70;99.90;;;;;;5112035;28;20517;-59
2023/10/15 02:35:13;;;;;;;0.93;0.75;;;8.90;99.90;;;;;;5111750;28;20441;-59
2023/10/15 02:37:40;;;;;;;0.20;0.20;;;8.70;99.90;;;;;;5111788;28;20476;-59
2023/10/15 02:40:16;;;;;;;0.20;0.20;;;8.90;99.90;;;;;;5111558;28;20055;-59
2023/10/15 02:42:52;;;;;;;0.20;0.20;;;8.80;99.90;;;;;;5111845;28;20126;-59
2023/10/15 02:45:21;;;;;;;0.30;0.30;;;8.70;99.90;;;;;;5112026;28;20116;-60
2023/10/15 02:47:54;;;;;;;2.92;0.57;;;8.70;99.90;;;;;;5111782;28;20501;-60
2023/10/15 02:50:26;;;;;;;0.20;0.20;;;8.70;99.90;;;;;;5111776;28;20478;-59
2023/10/15 02:52:54;;;;;;;0.20;0.20;;;8.40;99.90;;;;;;5111713;28;20056;-59
2023/10/15 02:55:26;;;;;;;0.30;0.30;;;8.90;99.90;;;;;;5110332;28;20126;-61
2023/10/15 02:57:52;;;;;;;0.20;0.20;;;8.50;99.90;;;;;;5111820;28;20079;-59
2023/10/15 03:00:18;;;;;;;0.20;0.20;;;8.60;99.90;;;;;;5111784;28;20525;-58
2023/10/15 03:02:45;;;;;;;;;;;7.80;99.90;;;;;;5112089;28;20047;-61
2023/10/15 03:05:15;;;;;;;0.20;0.20;;;7.20;99.90;;;;;;5111409;28;19920;-60
2023/10/15 03:07:42;;;;;;;0.20;0.20;;;6.70;99.90;;;;;;5111572;28;20051;-60
2023/10/15 03:10:23;;;;;;;0.20;0.20;;;6.00;99.90;;;;;;5111461;28;20568;-60
2023/10/15 03:12:48;;;;;;;0.43;0.40;;;6.00;99.90;;;;;;5111656;28;20051;-60
2023/10/15 03:15:16;;;;;;;0.20;0.20;;;6.70;99.90;;;;;;5111357;28;20055;-60
2023/10/15 03:17:43;;;;;;;0.50;0.50;;;6.70;99.90;;;;;;5111503;28;20112;-61
2023/10/15 03:22:45;;;;;;;0.30;0.30;;;6.10;99.90;;;;;;5111360;28;20063;-60
2023/10/15 03:25:13;;;;;;;0.32;0.30;;;7.00;99.90;;;;;;5111161;28;20471;-60
2023/10/15 03:27:48;;;;;;;0.45;0.45;;;7.20;99.90;;;;;;5111382;28;20055;-60
2023/10/15 03:30:15;;;;;;;0.43;0.43;;;7.30;99.90;;;;;;5111368;28;20044;-60
2023/10/15 03:32:41;;;;;;;;;;;6.20;99.90;;;;;;5111693;28;20455;-62
2023/10/15 03:35:17;;;;;;;0.20;0.20;;;7.20;99.90;;;;;;5112767;28;19923;-60
2023/10/15 03:37:47;;;;;;;0.30;0.30;;;6.80;99.90;;;;;;5115261;28;20495;-60
2023/10/15 03:40:29;;;;;;;0.43;0.40;;;6.30;99.90;;;;;;5115049;28;20097;-60
2023/10/15 03:43:04;;;;;;;0.20;0.20;;;7.40;99.90;;;;;;5114859;28;20546;-61
2023/10/15 03:45:33;;;;;;;0.30;0.30;;;7.20;99.90;;;;;;5114785;28;20522;-61
2023/10/15 03:48:00;;;;;;;0.17;0.17;;;7.00;99.90;;;;;;5114887;28;20134;-60
2023/10/15 03:50:29;;;;;;;5.25;0.95;;;6.80;99.90;;;;;;5114851;28;20047;-60
2023/10/15 03:52:58;;;;;;;0.30;0.30;;;6.90;99.90;;;;;;5114881;28;20062;-60
2023/10/15 03:55:24;;;;;;;0.20;0.20;;;6.10;99.90;;;;;;5114684;28;20039;-60
2023/10/15 03:57:51;;;;;;;0.30;0.30;;;5.70;99.90;;;;;;5114648;28;20047;-60
2023/10/15 04:00:35;;;;;;;0.20;0.20;;;6.20;99.90;;;;;;5114841;27;20058;-62
2023/10/15 04:03:18;;;;;;;0.40;0.40;;;6.10;99.90;;;;;;5114891;28;20048;-62
2023/10/15 04:05:54;;;;;;;0.20;0.20;;;6.10;99.90;;;;;;5114732;28;20376;-60
2023/10/15 04:08:20;;;;;;;0.30;0.30;;;7.30;99.90;;;;;;5113529;28;20464;-60
2023/10/15 04:10:55;;;;;;;0.30;0.30;;;7.00;99.90;;;;;;5114332;28;20051;-60
2023/10/15 04:13:21;;;;;;;0.20;0.20;;;6.00;99.90;;;;;;5114456;28;20044;-60
2023/10/15 04:15:50;;;;;;;0.32;0.32;;;6.80;99.90;;;;;;5114395;28;20039;-60
2023/10/15 04:18:16;;;;;;;3.42;0.47;;;7.20;99.90;;;;;;5114227;28;20051;-60
2023/10/15 04:20:42;;;;;;;0.20;0.20;;;7.00;99.90;;;;;;5114200;28;20083;-61
2023/10/15 04:23:20;;;;;;;0.30;0.30;;;6.00;99.90;;;;;;5114081;28;20534;-61
2023/10/15 04:25:47;;;;;;;0.20;0.20;;;6.20;99.90;;;;;;5114300;28;20058;-60
2023/10/15 04:28:14;;;;;;;0.40;0.40;;;6.20;99.90;;;;;;5114160;28;20058;-60
2023/10/15 04:30:40;;;;;;;0.20;0.20;;;7.00;99.90;;;;;;5114052;28;20483;-60
2023/10/15 04:33:27;;;;;;;;;;;7.30;99.90;;;;;;5114454;28;20036;-59
2023/10/15 04:35:56;;;;;;;5.68;0.40;;;6.80;99.90;;;;;;5114236;28;20022;-60
2023/10/15 04:38:27;;;;;;;0.20;0.20;;;7.10;99.90;;;;;;5114246;28;20124;-60
2023/10/15 04:43:26;;;;;;;0.30;0.30;;;7.60;99.90;;;;;;5113655;28;20056;-62
2023/10/15 04:45:54;;;;;;;0.20;0.20;;;7.10;99.90;;;;;;5113191;28;20043;-59
2023/10/15 04:48:27;;;;;;;0.20;0.20;;;7.10;99.90;;;;;;5113689;28;20457;-62
2023/10/15 04:50:53;;;;;;;0.20;0.20;;;7.40;99.90;;;;;;5113593;28;20662;-61
2023/10/15 04:55:47;;;;;;;0.28;0.28;;;7.00;99.90;;;;;;5113341;28;20018;-61
2023/10/15 04:58:13;;;;;;;0.30;0.30;;;6.70;99.90;;;;;;5113301;28;20051;-60
2023/10/15 05:00:43;;;;;;;0.52;0.40;;;6.90;99.90;;;;;;5113285;28;20518;-60
2023/10/15 05:03:09;;;;;;;0.20;0.20;;;6.70;99.90;;;;;;5113458;28;20459;-60
2023/10/15 05:05:36;;;;;;;0.20;0.20;;;7.10;99.90;;;;;;5113204;28;20051;-59
2023/10/15 05:08:02;;;;;;;0.30;0.30;;;7.20;99.90;;;;;;5113390;28;20148;-60
2023/10/15 05:10:29;;;;;;;;;;;7.60;99.90;;;;;;5113714;28;20058;-62
2023/10/15 05:12:55;;;;;;;0.20;0.20;;;7.50;99.90;;;;;;5113201;28;19926;-60
2023/10/15 05:15:21;;;;;;;;;;;7.60;99.90;;;;;;5113452;28;20050;-60
2023/10/15 05:17:47;;;;;;;0.20;0.20;;;7.30;99.90;;;;;;5112165;28;19924;-60
2023/10/15 05:20:13;;;;;;;;;;;7.50;99.90;;;;;;5113694;28;20128;-60
2023/10/15 05:22:40;;;;;;;0.30;0.30;;;7.50;99.90;;;;;;5113093;28;20329;-60
2023/10/15 05:25:15;;;;;;;0.15;0.15;;;8.40;99.90;;;;;;5112964;28;20084;-59
2023/10/15 05:27:42;;;;;;;0.20;0.20;;;6.40;99.90;;;;;;5112869;28;20050;-60
2023/10/15 05:30:10;;;;;;;0.20;0.20;;;6.50;99.90;;;;;;5112975;28;20083;-59
2023/10/15 05:32:36;;;;;;;0.55;0.55;;;5.80;99.90;;;;;;5111693;28;20055;-59
2023/10/15 05:35:03;;;;;;;0.30;0.30;;;5.90;99.90;;;;;;5112758;28;20040;-60
2023/10/15 05:37:28;;;;;;;6.75;1.30;;;6.20;99.90;;;;;;5112757;28;20076;-62
2023/10/15 05:39:54;;;;;;;1.58;1.48;;;5.90;99.90;;;;;;5112703;28;20491;-60
2023/10/15 05:42:20;;;;;;;0.30;0.30;;;5.90;99.90;;;;;;5094535;28;20131;-60
2023/10/15 05:44:46;;;;;;;;;;;6.20;99.90;;;;;;5113189;28;20058;-61
2023/10/15 05:47:11;;;;;;;0.20;0.20;;;6.10;99.90;;;;;;5112723;28;20307;-61
2023/10/15 05:49:37;;;;;;;0.30;0.30;;;6.10;99.90;;;;;;5112648;28;20043;-60
2023/10/15 05:52:03;;;;;;;0.25;0.25;;;5.90;99.90;;;;;;5112593;28;20554;-60
2023/10/15 05:54:32;;;;;;;0.30;0.30;;;6.00;99.90;;;;;;5111160;28;20043;-60
2023/10/15 05:56:58;;;;;;;0.28;0.28;;;5.80;99.90;;;;;;5112379;28;20104;-62
2023/10/15 05:59:23;;;;;;;4.00;0.60;;;6.30;99.90;;;;;;5111911;28;20134;-60
2023/10/15 06:01:50;;;;;;;0.30;0.30;;;6.30;99.90;;;;;;5112479;28;20407;-60
2023/10/15 06:04:17;;;;;;;;;;;6.40;99.90;;;;;;5112618;28;20047;-60
2023/10/15 06:06:43;;;;;;;0.40;0.40;;;6.50;99.90;;;;;;5112039;28;19924;-61
2023/10/15 06:09:11;;;;;;;0.43;0.32;;;6.20;99.90;;;;;;5112098;28;20086;-61
2023/10/15 06:11:37;;;;;;;5.38;0.63;;;6.30;99.90;;;;;;5111956;28;20054;-59
2023/10/15 06:14:05;;;;;;;0.25;0.25;;;6.20;99.90;;;;;;5112290;28;20136;-60
2023/10/15 06:16:31;;;;;;;0.20;0.20;;;6.60;99.90;;;;;;5112228;28;20058;-60
2023/10/15 06:19:00;;;;;;;0.20;0.20;;;6.40;99.90;;;;;;5112293;28;20040;-60
2023/10/15 06:21:25;;;;;;;0.20;0.20;;;6.40;99.90;;;;;;5112071;28;20047;-60
2023/10/15 06:23:52;;;;;;;0.40;0.40;;;6.40;99.90;;;;;;5111973;28;20073;-61
2023/10/15 06:26:18;;;;;;;0.20;0.20;;;6.60;99.90;;;;;;5111801;28;20122;-60
2023/10/15 06:28:43;;;;;;;0.30;0.30;;;6.70;99.90;;;;;;5111722;28;20155;-60
2023/10/15 06:31:09;;;;;;;0.20;0.20;;;6.50;99.90;;;;;;5088819;28;20044;-60
2023/10/15 06:33:40;;;;;;;0.38;0.38;;;6.70;99.90;;;;;;5094597;28;20492;-60
2023/10/15 06:36:07;;;;;;;0.20;0.20;;;6.90;99.90;;;;;;5100687;28;20040;-60
2023/10/15 06:38:33;;;;;;;;;;;6.60;99.90;;;;;;5111115;28;20052;-61
2023/10/15 06:41:00;;;;;;;0.22;0.22;;;6.80;99.90;;;;;;5111399;28;19920;-59
2023/10/15 06:43:26;;;;;;;0.20;0.20;;;6.70;99.90;;;;;;5110962;28;20433;-60
2023/10/15 06:45:52;;;;;;;;;;;6.70;99.90;;;;;;5110553;28;20051;-60
2023/10/15 06:48:18;;;;;;;3.20;0.68;;;6.40;99.90;;;;;;5110968;28;20335;-60
2023/10/15 06:50:44;;;;;;;0.20;0.20;;;6.20;99.90;;;;;;5110891;28;20051;-60
2023/10/15 06:53:10;;;;;;;0.20;0.20;;;6.40;99.90;;;;;;5110434;28;20048;-60
2023/10/15 06:55:35;;;;;;;0.30;0.30;;;6.50;99.90;;;;;;5087174;28;20051;-61
2023/10/15 06:58:01;;;;;;;0.20;0.20;;;6.30;99.90;;;;;;5100522;28;20048;-60
2023/10/15 07:00:31;;;;;;;0.20;0.20;;;6.20;99.90;;;;;;5111270;28;20051;-61
2023/10/15 07:02:56;;;;;;;0.20;0.20;;;6.20;99.90;;;;;;5110843;28;20048;-60
2023/10/15 07:05:26;;;;;;;1.05;1.05;;;6.50;99.90;;;;;;5110911;28;20506;-60
2023/10/15 07:07:53;;;;;;;0.20;0.20;;;6.50;99.90;;;;;;5111087;28;20122;-60
2023/10/15 07:10:19;;;;;;;0.20;0.20;;;6.70;99.90;;;;;;5112610;28;20051;-61
2023/10/15 07:12:50;;;;;;;0.20;0.20;;;6.40;99.90;;;;;;5115369;27;20043;-60
2023/10/15 07:15:17;;;;;;;0.43;0.43;;;6.90;99.90;;;;;;5109269;28;20127;-61
2023/10/15 07:17:44;;;;;;;0.20;0.20;;;6.70;99.90;;;;;;5113571;28;20364;-61
2023/10/15 07:20:26;;;;;;;0.22;0.22;;;6.80;99.90;;;;;;5113317;28;20064;-60
2023/10/15 07:22:53;;;;;;;0.20;0.20;;;6.90;99.90;;;;;;5115153;28;20469;-60
2023/10/15 07:25:21;;;;;;;0.73;0.73;;;7.90;99.90;;;;;;5115403;28;20047;-60
2023/10/15 07:27:49;;;;;;;0.45;0.45;;;7.00;99.90;;;;;;5115310;28;20039;-60
2023/10/15 07:30:21;;;;;;;0.20;0.20;;;8.10;99.90;;;;;;5115209;28;20051;-61
2023/10/15 07:32:48;;;;;;;0.20;0.20;;;7.10;99.90;;;;;;5084765;28;20048;-60
2023/10/15 07:35:14;;;;;;;;;;;7.40;99.90;;;;;;5093852;28;20395;-60
2023/10/15 07:37:40;;;;;;;4.40;1.40;;;7.30;99.90;;;;;;5112913;28;19931;-60
2023/10/15 07:40:07;;;;;;;;;;;7.30;99.90;;;;;;5114794;28;20126;-62
2023/10/15 07:42:33;;;;;;;0.20;0.20;;;7.30;99.90;;;;;;5114602;28;20006;-60
2023/10/15 07:44:59;;;;;;;;;;;7.50;99.90;;;;;;5115073;28;20083;-61
2023/10/15 07:47:26;;;;;;;0.30;0.30;;;7.60;99.90;;;;;;5113521;28;19930;-63
2023/10/15 07:49:52;;;;;;;0.30;0.30;;;7.10;99.90;;;;;;5114880;28;20463;-60
2023/10/15 07:52:17;;;;;;;0.30;0.30;;;7.40;99.90;;;;;;5114971;28;20104;-61
2023/10/15 07:54:43;;;;;;;0.30;0.30;;;7.30;99.90;;;;;;5114037;28;20044;-60
2023/10/15 07:57:10;;;;;;;0.20;0.20;;;7.50;99.90;;;;;;5114433;27;20054;-60
2023/10/15 07:59:36;;;;;;;0.30;0.30;;;8.10;99.90;;;;;;5112962;28;20053;-61
2023/10/15 08:02:03;;;;;;;0.22;0.22;;;7.90;99.90;;;;;;5113290;28;20433;-61
2023/10/15 08:04:29;;;;;;;0.20;0.20;;;8.30;99.90;;;;;;5114413;28;20052;-61
2023/10/15 08:06:55;;;;;;;0.17;0.17;;;8.70;99.90;;;;;;5113790;28;20499;-60
2023/10/15 08:09:21;;;;;;;;;;;8.80;99.90;;;;;;5114184;28;20056;-63
2023/10/15 08:11:47;;;;;;;0.20;0.20;;;8.40;99.90;;;;;;5113980;28;19973;-61
2023/10/15 08:14:13;;;;;;;0.40;0.40;;;8.60;99.90;;;;;;5114111;28;20098;-60
2023/10/15 08:16:38;;;;;;;0.20;0.20;;;8.60;99.90;;;;;;5111597;28;20036;-60
2023/10/15 08:19:04;;;;;;;0.20;0.20;;;8.70;99.90;;;;;;5114107;28;20098;-61
2023/10/15 08:21:30;;;;;;;0.30;0.30;;;8.60;99.90;;;;;;5112856;28;20102;-62
2023/10/15 08:23:57;;;;;;;0.38;0.38;;;8.60;99.90;;;;;;5113505;28;20499;-61
2023/10/15 08:26:22;;;;;;;0.20;0.20;;;8.50;99.90;;;;;;5113282;28;20053;-61
2023/10/15 08:28:48;;;;;;;0.20;0.20;;;8.30;99.90;;;;;;5113821;28;20126;-63
2023/10/15 08:31:14;;;;;;;1.70;1.27;;;8.00;99.90;;;;;;5112666;28;20039;-60
2023/10/15 08:33:40;;;;;;;0.60;0.60;;;7.90;99.90;;;;;;5113822;28;20058;-61
2023/10/15 08:36:07;;;;;;;0.82;0.82;;;7.90;99.90;;;;;;5113569;28;20402;-60
2023/10/15 08:38:34;;;;;;;0.20;0.20;;;8.10;99.90;;;;;;5113333;28;20044;-61
2023/10/15 08:41:04;;;;;;;0.52;0.52;;;7.40;99.90;;;;;;5113426;28;20044;-61
2023/10/15 08:43:32;;;;;;;7.50;1.17;;;;;;;;;;5113160;28;20040;-60
2023/10/15 08:45:58;;;;;;;0.30;0.30;;;7.40;99.90;;;;;;5107323;28;20048;-60
2023/10/15 08:48:28;;;;;;;7.68;0.77;;;7.80;99.90;;;;;;5111724;28;20093;-60
2023/10/15 08:50:56;;;;;;;0.40;0.40;;;8.20;99.90;;;;;;5112426;28;20051;-61
2023/10/15 08:53:25;;;;;;;0.25;0.25;;;8.00;99.90;;;;;;5112531;28;20385;-60
2023/10/15 08:55:57;;;;;;;0.20;0.20;;;8.60;99.90;;;;;;5112884;28;20120;-61
2023/10/15 08:58:25;;;;;;;0.30;0.30;;;8.60;99.90;;;;;;5112860;28;20040;-61
2023/10/15 09:00:54;;;;;;;0.43;0.43;;;8.70;99.90;;;;;;5112638;28;20124;-60
2023/10/15 09:03:23;;;;;;;0.20;0.20;;;8.50;99.90;;;;;;5112917;28;20059;-61
2023/10/15 09:05:52;;;;;;;0.20;0.20;;;8.40;99.90;;;;;;5112562;28;20108;-60
2023/10/15 09:08:20;;;;;;;0.20;0.20;;;8.50;99.90;;;;;;5112790;28;20050;-60
2023/10/15 09:10:45;;;;;;;0.20;0.20;;;8.50;99.90;;;;;;5112585;27;20047;-61
2023/10/15 09:13:15;;;;;;;0.20;0.20;;;8.10;99.90;;;;;;5106910;28;20505;-66
2023/10/15 09:15:55;;;;;;;0.20;0.20;;;7.90;99.90;;;;;;5086170;28;20070;-67
2023/10/15 09:18:25;;;;;;;0.20;0.20;;;8.30;99.90;;;;;;5107840;28;20118;-61
2023/10/15 09:20:51;;;;;;;0.20;0.20;;;8.40;99.90;;;;;;5098620;28;20518;-61
2023/10/15 09:23:21;;;;;;;0.20;0.20;;;8.70;99.90;;;;;;5111435;28;20047;-62
2023/10/15 09:25:51;;;;;;;0.20;0.20;;;8.80;99.90;;;;;;5111742;28;20043;-61
2023/10/15 09:28:17;;;;;;;0.57;0.50;;;9.40;99.90;;;;;;5111606;28;20162;-64
2023/10/15 09:30:46;;;;;;;2.90;0.63;;;8.90;99.90;;;;;;5111413;28;20047;-60
2023/10/15 09:33:16;;;;;;;0.20;0.20;;;9.30;99.90;;;;;;5111895;28;20050;-61
2023/10/15 09:35:42;;;;;;;0.20;0.20;;;9.70;99.90;;;;;;5108022;28;20042;-61
2023/10/15 09:38:13;;;;;;;0.30;0.30;;;10.10;99.90;;;;;;5098954;28;20052;-60
2023/10/15 09:40:43;;;;;;;0.30;0.30;;;9.80;99.90;;;;;;5090900;28;20048;-61
2023/10/15 09:43:10;;;;;;;0.30;0.30;;;10.30;99.90;;;;;;5103476;28;20411;-60
2023/10/15 09:45:36;;;;;;;0.20;0.20;;;10.20;99.90;;;;;;5111269;28;20074;-60
2023/10/15 09:48:02;;;;;;;0.20;0.20;;;10.60;99.90;;;;;;5110261;28;20039;-62
2023/10/15 09:50:31;;;;;;;;;;;10.60;99.90;;;;;;5111491;28;20051;-60
2023/10/15 09:53:01;;;;;;;0.45;0.45;;;9.70;99.90;;;;;;5110293;28;19946;-62
2023/10/15 09:55:34;;;;;;;0.20;0.20;;;9.30;99.90;;;;;;5111443;28;20047;-61
2023/10/15 09:58:01;;;;;;;0.30;0.30;;;9.50;99.90;;;;;;5105792;28;20080;-60
2023/10/15 10:00:59;;;;;;;0.20;0.20;;;9.20;99.90;;;;;;5110595;28;20047;-60
2023/10/15 10:03:39;;;;;;;0.30;0.30;;;9.20;99.90;;;;;;5109837;28;20190;-61
2023/10/15 10:06:33;;;;;;;0.40;0.40;;;9.70;99.90;;;;;;5111445;28;20081;-60
2023/10/15 10:09:39;;;;;;;0.20;0.20;;;9.80;99.90;;;;;;5111613;28;20499;-61
2023/10/15 10:12:24;;;;;;;0.65;0.50;;;9.70;99.90;;;;;;5110277;28;20057;-61
2023/10/15 10:15:05;;;;;;;0.20;0.20;;;9.90;99.90;;;;;;5111612;28;20043;-60
2023/10/15 10:17:32;;;;;;;0.20;0.20;;;10.50;99.90;;;;;;5111741;28;20083;-60
2023/10/15 10:20:03;;;;;;;0.20;0.20;;;10.30;99.90;;;;;;5111401;28;20091;-60
2023/10/15 10:22:31;;;;;;;0.55;0.55;;;10.30;99.90;;;;;;5111710;28;20051;-60
2023/10/15 10:25:00;;;;;;;0.57;0.57;;;10.50;99.90;;;;;;5111547;28;20078;-60
2023/10/15 10:27:26;;;;;;;0.20;0.20;;;10.20;99.90;;;;;;5111421;28;20083;-61
2023/10/15 10:29:52;;;;;;;;;;;10.10;99.90;;;;;;5112039;28;20079;-62
2023/10/15 10:32:20;;;;;;;0.20;0.20;;;9.80;99.90;;;;;;5111247;28;19980;-60
2023/10/15 10:35:06;;;;;;;0.50;0.30;;;9.70;99.90;;;;;;5110893;28;20040;-61
2023/10/15 10:37:32;;;;;;;0.17;0.17;;;9.60;99.90;;;;;;5110949;28;20052;-61
2023/10/15 10:39:59;;;;;;;0.38;0.38;;;9.60;99.90;;;;;;5111377;28;20083;-60
2023/10/15 10:42:26;;;;;;;0.40;0.40;;;9.50;99.90;;;;;;5111393;28;20039;-60
2023/10/15 10:44:56;;;;;;;0.20;0.20;;;9.20;99.90;;;;;;5092983;28;20044;-60
2023/10/15 10:47:29;;;;;;;0.75;0.75;;;9.60;99.90;;;;;;5096984;28;20392;-60
2023/10/15 10:50:00;;;;;;;0.20;0.20;;;9.80;99.90;;;;;;5109734;28;20050;-61
2023/10/15 10:52:36;;;;;;;0.20;0.20;;;10.00;99.90;;;;;;5113877;28;20051;-60
2023/10/15 10:55:30;;;;;;;0.32;0.32;;;10.40;99.90;;;;;;5113867;28;20040;-59
2023/10/15 10:57:56;;;;;;;0.20;0.20;;;10.70;99.90;;;;;;5112921;28;20411;-60
2023/10/15 11:00:22;;;;;;;0.30;0.30;;;11.10;99.90;;;;;;5115289;28;20058;-60
2023/10/15 11:02:48;;;;;;;2.42;0.68;;;11.10;99.90;;;;;;5115458;28;20103;-61
2023/10/15 11:05:17;;;;;;;0.20;0.20;;;11.30;99.90;;;;;;5115140;27;20076;-60
2023/10/15 11:07:43;;;;;;;0.30;0.30;;;11.30;99.90;;;;;;5114847;28;20184;-61
2023/10/15 11:10:09;;;;;;;0.17;0.17;;;11.10;99.90;;;;;;5115428;28;20083;-60
2023/10/15 11:12:35;;;;;;;;;;;10.90;99.90;;;;;;5115554;28;20051;-61
2023/10/15 11:15:01;;;;;;;0.30;0.30;;;11.10;99.90;;;;;;5114983;28;19920;-60
2023/10/15 11:17:27;;;;;;;;;;;10.60;99.90;;;;;;5115564;28;20491;-60
2023/10/15 11:19:52;;;;;;;0.20;0.20;;;10.70;99.90;;;;;;5114896;28;19931;-60
2023/10/15 11:22:18;;;;;;;0.20;0.20;;;10.50;99.90;;;;;;5114715;28;20040;-60
2023/10/15 11:24:44;;;;;;;0.20;0.20;;;10.40;99.90;;;;;;5115223;28;20039;-60
2023/10/15 11:27:12;;;;;;;17.90;0.73;;;10.60;99.90;;;;;;5114886;28;20052;-60
2023/10/15 11:29:38;;;;;;;0.20;0.20;;;10.50;99.90;;;;;;5113756;28;20059;-61
2023/10/15 11:32:06;;;;;;;;;;;10.30;99.90;;;;;;5115107;28;20118;-60
2023/10/15 11:34:35;;;;;;;1.15;1.00;;;10.70;99.90;;;;;;5114503;27;19969;-61
2023/10/15 11:37:01;;;;;;;0.20;0.20;;;11.10;99.90;;;;;;5113626;28;20052;-60
2023/10/15 11:39:37;;;;;;;0.20;0.20;;;10.90;99.90;;;;;;5114924;28;20075;-60
2023/10/15 11:42:10;;;;;;;0.20;0.20;;;10.80;99.90;;;;;;5114962;28;20100;-62
2023/10/15 11:44:42;;;;;;;1.85;0.60;;;10.80;99.90;;;;;;5114461;28;20039;-59
2023/10/15 11:47:19;;;;;;;0.20;0.20;;;11.10;99.90;;;;;;5114204;28;20054;-61
2023/10/15 11:49:45;;;;;;;0.20;0.20;;;10.90;99.90;;;;;;5115122;28;20047;-61
2023/10/15 11:52:23;;;;;;;0.45;0.25;;;10.60;99.90;;;;;;5114916;28;20142;-60
2023/10/15 11:54:49;;;;;;;0.20;0.20;;;10.40;99.90;;;;;;5114768;28;20052;-60
2023/10/15 11:57:26;;;;;;;0.20;0.20;;;10.60;99.90;;;;;;5114592;28;20043;-60
2023/10/15 11:59:52;;;;;;;0.20;0.20;;;10.80;99.90;;;;;;5114684;28;20044;-60
2023/10/15 12:02:18;;;;;;;0.20;0.20;;;11.20;99.90;;;;;;5114853;27;20689;-60
2023/10/15 12:04:43;;;;;;;0.68;0.68;;;11.20;99.90;;;;;;5114948;28;20058;-61
2023/10/15 12:07:16;;;;;;;0.52;0.52;;;11.40;99.90;;;;;;5114588;28;20059;-60
2023/10/15 12:09:47;;;;;;;0.20;0.20;;;11.30;99.90;;;;;;5114626;28;20407;-60
2023/10/15 12:12:13;;;;;;;4.38;0.77;;;11.70;99.90;;;;;;5114314;28;20086;-60
2023/10/15 12:14:40;;;;;;;0.88;0.63;;;11.50;99.90;;;;;;5114458;28;20822;-61
2023/10/15 12:17:06;;;;;;;4.20;0.60;;;11.10;99.90;;;;;;5114372;28;20048;-61
2023/10/15 12:19:31;;;;;;;0.70;0.68;;;10.80;99.90;;;;;;5114425;28;20036;-61
2023/10/15 12:22:01;;;;;;;0.20;0.20;;;10.60;99.90;;;;;;5114304;28;20508;-61
2023/10/15 12:24:27;;;;;;;0.20;0.20;;;10.70;99.90;;;;;;5114170;28;20054;-61
2023/10/15 12:26:52;;;;;;;0.20;0.20;;;10.70;99.90;;;;;;5114111;28;20052;-60
2023/10/15 12:29:28;;;;;;;0.20;0.20;;;10.90;99.90;;;;;;5114279;28;20043;-60
2023/10/15 12:31:57;;;;;;;0.55;0.55;;;10.70;99.90;;;;;;5114164;28;20051;-61
2023/10/15 12:34:24;;;;;;;2.75;2.33;;;10.90;99.90;;;;;;5114087;28;20043;-60
2023/10/15 12:36:50;;;;;;;0.20;0.20;;;11.00;99.90;;;;;;5114028;27;20126;-60
2023/10/15 12:39:16;;;;;;;0.22;0.22;;;11.40;99.90;;;;;;5113954;28;20051;-60
2023/10/15 12:41:41;;;;;;;0.63;0.63;;;11.20;99.90;;;;;;5113745;28;20048;-61
2023/10/15 12:44:11;;;;;;;0.20;0.20;;;11.10;99.90;;;;;;5113971;28;20047;-60
2023/10/15 12:46:37;;;;;;;0.20;0.20;;;11.40;99.90;;;;;;5113857;28;20054;-60
2023/10/15 12:49:03;;;;;;;1.35;0.43;;;11.80;99.90;;;;;;5113728;28;20130;-60
2023/10/15 12:51:30;;;;;;;0.30;0.30;;;11.50;99.90;;;;;;5113686;28;20498;-61
2023/10/15 12:53:56;;;;;;;0.20;0.20;;;12.10;99.90;;;;;;5113664;28;20044;-60
2023/10/15 12:56:22;;;;;;;0.10;0.10;;;11.80;99.90;;;;;;5113529;28;20471;-60
2023/10/15 12:58:49;;;;;;;0.20;0.20;;;12.00;99.90;;;;;;5113703;28;20502;-61
2023/10/15 13:01:19;;;;;;;0.10;0.10;;;11.60;99.90;;;;;;5113599;28;20048;-60
2023/10/15 13:03:47;;;;;;;0.10;0.10;;;11.90;99.90;;;;;;5113656;28;20398;-61
2023/10/15 13:06:15;;;;;;;0.15;0.15;;;12.20;99.90;;;;;;5113022;28;20586;-61
2023/10/15 13:08:42;;;;;;;0.20;0.20;;;12.50;99.90;;;;;;5112684;28;20164;-60
2023/10/15 13:11:08;;;;;;;0.20;0.20;;;12.70;99.90;;;;;;5113663;28;20048;-61
2023/10/15 13:13:33;;;;;;;0.10;0.10;;;12.30;99.90;;;;;;5113655;28;20054;-62
2023/10/15 13:15:59;;;;;;;0.35;0.35;;;12.80;99.90;;;;;;5113328;28;20487;-63
2023/10/15 13:18:25;;;;;;;0.10;0.10;;;12.70;99.90;;;;;;5113213;28;20064;-61
2023/10/15 13:20:50;;;;;;;0.30;0.30;;;12.90;99.90;;;;;;5113117;28;20051;-61
2023/10/15 13:23:16;;;;;;;;;;;13.10;99.90;;;;;;5113343;28;20044;-61
2023/10/15 13:25:42;;;;;;;2.20;0.65;;;13.20;99.90;;;;;;5113139;28;19920;-60
2023/10/15 13:28:08;;;;;;;0.10;0.10;;;12.90;99.90;;;;;;5111792;28;20054;-61
2023/10/15 13:30:34;;;;;;;0.20;0.20;;;12.30;99.90;;;;;;5113070;28;20074;-61
2023/10/15 13:33:01;;;;;;;0.10;0.10;;;12.30;99.90;;;;;;5113126;28;20544;-61
2023/10/15 13:35:27;;;;;;;1.88;1.20;;;12.30;99.90;;;;;;5112892;28;20128;-61
2023/10/15 13:37:53;;;;;;;0.10;0.10;;;12.30;99.90;;;;;;5112766;28;20086;-61